sensor_id;sensor_type;location;lat;lon;timestamp;P1;durP1;ratioP1;P2;durP2;ratioP2
45688;SDS011;31400;48.132;20.872;2023-03-16T00:02:13;4.00;;;2.08;;
45688;SDS011;31400;48.132;20.872;2023-03-16T00:04:39;3.58;;;1.20;;
45688;SDS011;31400;48.132;20.872;2023-03-16T00:07:06;6.18;;;1.27;;
45688;SDS011;31400;48.132;20.872;2023-03-16T00:09:33;2.15;;;0.90;;
45688;SDS011;31400;48.132;20.872;2023-03-16T00:11:59;1.55;;;1.27;;
45688;SDS011;31400;48.132;20.872;2023-03-16T00:14:29;1.25;;;0.82;;
45688;SDS011;31400;48.132;20.872;2023-03-16T00:16:55;2.25;;;0.93;;
45688;SDS011;31400;48.132;20.872;2023-03-16T00:19:21;3.08;;;1.02;;
45688;SDS011;31400;48.132;20.872;2023-03-16T00:21:48;10.13;;;1.52;;
45688;SDS011;31400;48.132;20.872;2023-03-16T00:24:15;8.75;;;2.05;;
45688;SDS011;31400;48.132;20.872;2023-03-16T00:26:42;1.17;;;0.93;;
45688;SDS011;31400;48.132;20.872;2023-03-16T00:29:08;5.70;;;1.67;;
45688;SDS011;31400;48.132;20.872;2023-03-16T00:31:34;5.25;;;1.55;;
45688;SDS011;31400;48.132;20.872;2023-03-16T00:34:00;5.07;;;1.33;;
45688;SDS011;31400;48.132;20.872;2023-03-16T00:36:26;3.17;;;1.52;;
45688;SDS011;31400;48.132;20.872;2023-03-16T00:38:52;9.23;;;2.72;;
45688;SDS011;31400;48.132;20.872;2023-03-16T00:41:18;4.45;;;1.58;;
45688;SDS011;31400;48.132;20.872;2023-03-16T00:43:46;2.78;;;0.82;;
45688;SDS011;31400;48.132;20.872;2023-03-16T00:46:16;4.28;;;1.33;;
45688;SDS011;31400;48.132;20.872;2023-03-16T00:48:43;6.47;;;1.30;;
45688;SDS011;31400;48.132;20.872;2023-03-16T00:51:10;4.97;;;1.42;;
45688;SDS011;31400;48.132;20.872;2023-03-16T00:53:37;3.05;;;1.08;;
45688;SDS011;31400;48.132;20.872;2023-03-16T00:56:04;3.17;;;1.25;;
45688;SDS011;31400;48.132;20.872;2023-03-16T00:58:31;12.05;;;3.30;;
45688;SDS011;31400;48.132;20.872;2023-03-16T01:01:00;3.47;;;1.38;;
45688;SDS011;31400;48.132;20.872;2023-03-16T01:03:26;3.90;;;1.70;;
45688;SDS011;31400;48.132;20.872;2023-03-16T01:05:52;4.68;;;1.02;;
45688;SDS011;31400;48.132;20.872;2023-03-16T01:08:23;11.63;;;1.92;;
45688;SDS011;31400;48.132;20.872;2023-03-16T01:10:51;5.68;;;1.95;;
45688;SDS011;31400;48.132;20.872;2023-03-16T01:13:18;3.67;;;1.55;;
45688;SDS011;31400;48.132;20.872;2023-03-16T01:15:44;4.07;;;1.88;;
45688;SDS011;31400;48.132;20.872;2023-03-16T01:18:10;3.65;;;1.80;;
45688;SDS011;31400;48.132;20.872;2023-03-16T01:20:37;3.90;;;1.98;;
45688;SDS011;31400;48.132;20.872;2023-03-16T01:23:03;2.78;;;1.35;;
45688;SDS011;31400;48.132;20.872;2023-03-16T01:25:29;3.88;;;1.15;;
45688;SDS011;31400;48.132;20.872;2023-03-16T01:27:56;4.65;;;2.05;;
45688;SDS011;31400;48.132;20.872;2023-03-16T01:30:22;3.45;;;1.33;;
45688;SDS011;31400;48.132;20.872;2023-03-16T01:32:48;6.72;;;1.35;;
45688;SDS011;31400;48.132;20.872;2023-03-16T01:35:15;3.85;;;1.88;;
45688;SDS011;31400;48.132;20.872;2023-03-16T01:37:41;3.35;;;1.08;;
45688;SDS011;31400;48.132;20.872;2023-03-16T01:40:07;5.00;;;1.42;;
45688;SDS011;31400;48.132;20.872;2023-03-16T01:42:48;4.55;;;1.30;;
45688;SDS011;31400;48.132;20.872;2023-03-16T01:47:59;6.00;;;1.58;;
45688;SDS011;31400;48.132;20.872;2023-03-16T01:50:25;2.80;;;1.40;;
45688;SDS011;31400;48.132;20.872;2023-03-16T01:52:52;4.95;;;1.40;;
45688;SDS011;31400;48.132;20.872;2023-03-16T01:55:18;2.72;;;0.90;;
45688;SDS011;31400;48.132;20.872;2023-03-16T01:57:44;1.58;;;0.80;;
45688;SDS011;31400;48.132;20.872;2023-03-16T02:00:12;2.90;;;1.27;;
45688;SDS011;31400;48.132;20.872;2023-03-16T02:02:56;2.25;;;1.02;;
45688;SDS011;31400;48.132;20.872;2023-03-16T02:05:36;3.20;;;1.38;;
45688;SDS011;31400;48.132;20.872;2023-03-16T02:08:03;1.48;;;0.93;;
45688;SDS011;31400;48.132;20.872;2023-03-16T02:10:30;1.67;;;0.90;;
45688;SDS011;31400;48.132;20.872;2023-03-16T02:12:57;3.70;;;1.30;;
45688;SDS011;31400;48.132;20.872;2023-03-16T02:15:24;4.85;;;1.50;;
45688;SDS011;31400;48.132;20.872;2023-03-16T02:17:51;3.67;;;1.30;;
45688;SDS011;31400;48.132;20.872;2023-03-16T02:22:56;2.63;;;1.23;;
45688;SDS011;31400;48.132;20.872;2023-03-16T02:25:23;7.82;;;1.33;;
45688;SDS011;31400;48.132;20.872;2023-03-16T02:30:20;7.90;;;2.30;;
45688;SDS011;31400;48.132;20.872;2023-03-16T02:32:47;3.50;;;1.38;;
45688;SDS011;31400;48.132;20.872;2023-03-16T02:35:15;3.25;;;1.33;;
45688;SDS011;31400;48.132;20.872;2023-03-16T02:42:40;6.72;;;3.05;;
45688;SDS011;31400;48.132;20.872;2023-03-16T02:45:07;4.50;;;1.52;;
45688;SDS011;31400;48.132;20.872;2023-03-16T02:47:39;2.78;;;1.58;;
45688;SDS011;31400;48.132;20.872;2023-03-16T02:50:10;2.95;;;1.40;;
45688;SDS011;31400;48.132;20.872;2023-03-16T02:52:37;1.85;;;1.00;;
45688;SDS011;31400;48.132;20.872;2023-03-16T02:55:04;3.17;;;1.92;;
45688;SDS011;31400;48.132;20.872;2023-03-16T02:57:30;6.88;;;1.02;;
45688;SDS011;31400;48.132;20.872;2023-03-16T02:59:57;2.45;;;0.75;;
45688;SDS011;31400;48.132;20.872;2023-03-16T03:02:23;2.60;;;1.13;;
45688;SDS011;31400;48.132;20.872;2023-03-16T03:04:49;3.88;;;1.38;;
45688;SDS011;31400;48.132;20.872;2023-03-16T03:07:19;1.65;;;0.82;;
45688;SDS011;31400;48.132;20.872;2023-03-16T03:09:45;4.00;;;1.33;;
45688;SDS011;31400;48.132;20.872;2023-03-16T03:12:11;1.10;;;0.70;;
45688;SDS011;31400;48.132;20.872;2023-03-16T03:14:38;3.50;;;2.00;;
45688;SDS011;31400;48.132;20.872;2023-03-16T03:17:04;2.38;;;1.85;;
45688;SDS011;31400;48.132;20.872;2023-03-16T03:19:31;4.72;;;2.05;;
45688;SDS011;31400;48.132;20.872;2023-03-16T03:21:58;2.85;;;1.15;;
45688;SDS011;31400;48.132;20.872;2023-03-16T03:24:24;1.40;;;0.75;;
45688;SDS011;31400;48.132;20.872;2023-03-16T03:26:52;1.35;;;1.02;;
45688;SDS011;31400;48.132;20.872;2023-03-16T03:29:18;3.70;;;1.42;;
45688;SDS011;31400;48.132;20.872;2023-03-16T03:31:44;7.47;;;2.05;;
45688;SDS011;31400;48.132;20.872;2023-03-16T03:34:10;6.25;;;2.50;;
45688;SDS011;31400;48.132;20.872;2023-03-16T03:36:36;2.60;;;1.10;;
45688;SDS011;31400;48.132;20.872;2023-03-16T03:39:02;3.50;;;0.85;;
45688;SDS011;31400;48.132;20.872;2023-03-16T03:41:29;2.30;;;1.38;;
45688;SDS011;31400;48.132;20.872;2023-03-16T03:43:57;3.80;;;1.02;;
45688;SDS011;31400;48.132;20.872;2023-03-16T03:46:23;3.28;;;1.20;;
45688;SDS011;31400;48.132;20.872;2023-03-16T03:48:49;4.85;;;1.23;;
45688;SDS011;31400;48.132;20.872;2023-03-16T03:51:15;2.67;;;0.65;;
45688;SDS011;31400;48.132;20.872;2023-03-16T03:53:41;2.58;;;1.30;;
45688;SDS011;31400;48.132;20.872;2023-03-16T03:56:07;3.60;;;1.50;;
45688;SDS011;31400;48.132;20.872;2023-03-16T03:58:34;2.25;;;1.65;;
45688;SDS011;31400;48.132;20.872;2023-03-16T04:01:00;2.55;;;1.40;;
45688;SDS011;31400;48.132;20.872;2023-03-16T04:03:26;1.98;;;1.17;;
45688;SDS011;31400;48.132;20.872;2023-03-16T04:05:52;8.15;;;1.92;;
45688;SDS011;31400;48.132;20.872;2023-03-16T04:08:18;4.90;;;2.05;;
45688;SDS011;31400;48.132;20.872;2023-03-16T04:10:44;2.60;;;1.30;;
45688;SDS011;31400;48.132;20.872;2023-03-16T04:13:10;22.15;;;3.50;;
45688;SDS011;31400;48.132;20.872;2023-03-16T04:15:36;2.80;;;1.42;;
45688;SDS011;31400;48.132;20.872;2023-03-16T04:18:04;6.60;;;2.15;;
45688;SDS011;31400;48.132;20.872;2023-03-16T04:20:30;3.38;;;1.35;;
45688;SDS011;31400;48.132;20.872;2023-03-16T04:22:56;2.15;;;1.95;;
45688;SDS011;31400;48.132;20.872;2023-03-16T04:25:22;2.55;;;1.48;;
45688;SDS011;31400;48.132;20.872;2023-03-16T04:27:50;2.50;;;1.75;;
45688;SDS011;31400;48.132;20.872;2023-03-16T04:30:16;6.28;;;2.17;;
45688;SDS011;31400;48.132;20.872;2023-03-16T04:32:42;10.90;;;4.53;;
45688;SDS011;31400;48.132;20.872;2023-03-16T04:35:08;4.82;;;2.40;;
45688;SDS011;31400;48.132;20.872;2023-03-16T04:37:35;6.60;;;2.50;;
45688;SDS011;31400;48.132;20.872;2023-03-16T04:40:02;3.75;;;1.83;;
45688;SDS011;31400;48.132;20.872;2023-03-16T04:42:35;4.18;;;2.10;;
45688;SDS011;31400;48.132;20.872;2023-03-16T04:45:02;8.00;;;2.75;;
45688;SDS011;31400;48.132;20.872;2023-03-16T04:47:28;3.42;;;2.30;;
45688;SDS011;31400;48.132;20.872;2023-03-16T04:49:54;6.47;;;2.65;;
45688;SDS011;31400;48.132;20.872;2023-03-16T04:52:20;5.93;;;2.35;;
45688;SDS011;31400;48.132;20.872;2023-03-16T04:54:46;3.42;;;1.88;;
45688;SDS011;31400;48.132;20.872;2023-03-16T04:57:12;4.18;;;2.45;;
45688;SDS011;31400;48.132;20.872;2023-03-16T04:59:43;4.30;;;2.10;;
45688;SDS011;31400;48.132;20.872;2023-03-16T05:02:09;8.10;;;2.53;;
45688;SDS011;31400;48.132;20.872;2023-03-16T05:04:35;5.78;;;2.42;;
45688;SDS011;31400;48.132;20.872;2023-03-16T05:07:01;2.72;;;1.00;;
45688;SDS011;31400;48.132;20.872;2023-03-16T05:09:27;4.93;;;2.78;;
45688;SDS011;31400;48.132;20.872;2023-03-16T05:11:53;9.30;;;4.10;;
45688;SDS011;31400;48.132;20.872;2023-03-16T05:14:19;9.20;;;2.30;;
45688;SDS011;31400;48.132;20.872;2023-03-16T05:16:45;5.97;;;2.45;;
45688;SDS011;31400;48.132;20.872;2023-03-16T05:19:11;3.13;;;1.98;;
45688;SDS011;31400;48.132;20.872;2023-03-16T05:21:37;2.60;;;1.75;;
45688;SDS011;31400;48.132;20.872;2023-03-16T05:24:04;3.03;;;1.85;;
45688;SDS011;31400;48.132;20.872;2023-03-16T05:26:30;5.35;;;1.73;;
45688;SDS011;31400;48.132;20.872;2023-03-16T05:28:56;8.07;;;2.75;;
45688;SDS011;31400;48.132;20.872;2023-03-16T05:31:23;3.30;;;1.67;;
45688;SDS011;31400;48.132;20.872;2023-03-16T05:33:56;6.00;;;3.78;;
45688;SDS011;31400;48.132;20.872;2023-03-16T05:36:22;11.00;;;3.67;;
45688;SDS011;31400;48.132;20.872;2023-03-16T05:38:49;6.03;;;2.63;;
45688;SDS011;31400;48.132;20.872;2023-03-16T05:43:42;7.22;;;2.63;;
45688;SDS011;31400;48.132;20.872;2023-03-16T05:46:09;3.50;;;1.80;;
45688;SDS011;31400;48.132;20.872;2023-03-16T05:48:35;6.90;;;2.17;;
45688;SDS011;31400;48.132;20.872;2023-03-16T05:51:01;8.93;;;3.08;;
45688;SDS011;31400;48.132;20.872;2023-03-16T05:53:30;7.68;;;3.03;;
45688;SDS011;31400;48.132;20.872;2023-03-16T05:55:56;4.63;;;2.67;;
45688;SDS011;31400;48.132;20.872;2023-03-16T06:00:49;4.75;;;1.50;;
45688;SDS011;31400;48.132;20.872;2023-03-16T06:03:15;2.65;;;1.67;;
45688;SDS011;31400;48.132;20.872;2023-03-16T06:05:41;7.18;;;3.17;;
45688;SDS011;31400;48.132;20.872;2023-03-16T06:08:07;5.75;;;3.20;;
45688;SDS011;31400;48.132;20.872;2023-03-16T06:10:34;4.60;;;2.40;;
45688;SDS011;31400;48.132;20.872;2023-03-16T06:13:00;11.07;;;3.58;;
45688;SDS011;31400;48.132;20.872;2023-03-16T06:15:26;7.85;;;3.45;;
45688;SDS011;31400;48.132;20.872;2023-03-16T06:17:54;8.48;;;3.40;;
45688;SDS011;31400;48.132;20.872;2023-03-16T06:20:20;19.60;;;4.00;;
45688;SDS011;31400;48.132;20.872;2023-03-16T06:22:46;7.10;;;2.30;;
45688;SDS011;31400;48.132;20.872;2023-03-16T06:25:13;3.30;;;2.47;;
45688;SDS011;31400;48.132;20.872;2023-03-16T06:27:39;6.63;;;1.98;;
45688;SDS011;31400;48.132;20.872;2023-03-16T06:30:06;4.93;;;1.73;;
45688;SDS011;31400;48.132;20.872;2023-03-16T06:32:33;3.55;;;1.27;;
45688;SDS011;31400;48.132;20.872;2023-03-16T06:35:00;3.45;;;1.75;;
45688;SDS011;31400;48.132;20.872;2023-03-16T06:37:27;3.83;;;1.83;;
45688;SDS011;31400;48.132;20.872;2023-03-16T06:39:54;7.07;;;1.55;;
45688;SDS011;31400;48.132;20.872;2023-03-16T06:42:20;6.28;;;2.42;;
45688;SDS011;31400;48.132;20.872;2023-03-16T06:44:46;6.63;;;2.00;;
45688;SDS011;31400;48.132;20.872;2023-03-16T06:47:12;4.30;;;1.85;;
45688;SDS011;31400;48.132;20.872;2023-03-16T06:49:38;5.25;;;2.42;;
45688;SDS011;31400;48.132;20.872;2023-03-16T06:52:04;6.95;;;2.35;;
45688;SDS011;31400;48.132;20.872;2023-03-16T06:54:30;4.95;;;1.90;;
45688;SDS011;31400;48.132;20.872;2023-03-16T06:56:59;17.35;;;1.75;;
45688;SDS011;31400;48.132;20.872;2023-03-16T07:01:58;4.68;;;2.22;;
45688;SDS011;31400;48.132;20.872;2023-03-16T07:04:25;6.22;;;2.63;;
45688;SDS011;31400;48.132;20.872;2023-03-16T07:06:52;7.18;;;1.65;;
45688;SDS011;31400;48.132;20.872;2023-03-16T07:09:18;7.68;;;2.42;;
45688;SDS011;31400;48.132;20.872;2023-03-16T07:11:44;5.65;;;2.20;;
45688;SDS011;31400;48.132;20.872;2023-03-16T07:14:10;5.57;;;2.83;;
45688;SDS011;31400;48.132;20.872;2023-03-16T07:16:36;5.25;;;2.28;;
45688;SDS011;31400;48.132;20.872;2023-03-16T07:19:03;9.23;;;3.03;;
45688;SDS011;31400;48.132;20.872;2023-03-16T07:21:29;16.05;;;3.33;;
45688;SDS011;31400;48.132;20.872;2023-03-16T07:24:03;6.65;;;2.67;;
45688;SDS011;31400;48.132;20.872;2023-03-16T07:26:29;6.50;;;2.85;;
45688;SDS011;31400;48.132;20.872;2023-03-16T07:28:56;5.18;;;2.40;;
45688;SDS011;31400;48.132;20.872;2023-03-16T07:33:49;8.60;;;2.85;;
45688;SDS011;31400;48.132;20.872;2023-03-16T07:36:15;4.50;;;1.65;;
45688;SDS011;31400;48.132;20.872;2023-03-16T07:38:41;3.92;;;1.77;;
45688;SDS011;31400;48.132;20.872;2023-03-16T07:41:07;3.53;;;1.83;;
45688;SDS011;31400;48.132;20.872;2023-03-16T07:43:33;2.53;;;1.15;;
45688;SDS011;31400;48.132;20.872;2023-03-16T07:45:59;1.30;;;0.80;;
45688;SDS011;31400;48.132;20.872;2023-03-16T07:48:25;2.95;;;1.00;;
45688;SDS011;31400;48.132;20.872;2023-03-16T07:50:52;3.45;;;1.15;;
45688;SDS011;31400;48.132;20.872;2023-03-16T07:55:44;1.30;;;0.90;;
45688;SDS011;31400;48.132;20.872;2023-03-16T08:00:36;1.92;;;0.90;;
45688;SDS011;31400;48.132;20.872;2023-03-16T08:03:02;3.03;;;0.80;;
45688;SDS011;31400;48.132;20.872;2023-03-16T08:05:29;3.47;;;1.40;;
45688;SDS011;31400;48.132;20.872;2023-03-16T08:07:56;1.23;;;0.85;;
45688;SDS011;31400;48.132;20.872;2023-03-16T08:10:23;3.55;;;1.10;;
45688;SDS011;31400;48.132;20.872;2023-03-16T08:12:49;2.22;;;0.95;;
45688;SDS011;31400;48.132;20.872;2023-03-16T08:17:41;3.25;;;0.77;;
45688;SDS011;31400;48.132;20.872;2023-03-16T08:20:07;2.13;;;0.93;;
45688;SDS011;31400;48.132;20.872;2023-03-16T08:22:38;1.83;;;0.80;;
45688;SDS011;31400;48.132;20.872;2023-03-16T08:27:30;4.55;;;1.17;;
45688;SDS011;31400;48.132;20.872;2023-03-16T08:29:56;2.05;;;1.05;;
45688;SDS011;31400;48.132;20.872;2023-03-16T08:32:22;4.93;;;1.67;;
45688;SDS011;31400;48.132;20.872;2023-03-16T08:34:48;3.17;;;0.95;;
45688;SDS011;31400;48.132;20.872;2023-03-16T08:37:14;3.17;;;1.20;;
45688;SDS011;31400;48.132;20.872;2023-03-16T08:39:40;1.58;;;0.82;;
45688;SDS011;31400;48.132;20.872;2023-03-16T08:42:08;4.20;;;1.27;;
45688;SDS011;31400;48.132;20.872;2023-03-16T08:44:34;2.83;;;0.95;;
45688;SDS011;31400;48.132;20.872;2023-03-16T08:47:01;1.48;;;0.73;;
45688;SDS011;31400;48.132;20.872;2023-03-16T08:49:29;3.53;;;1.17;;
45688;SDS011;31400;48.132;20.872;2023-03-16T08:51:55;2.10;;;1.10;;
45688;SDS011;31400;48.132;20.872;2023-03-16T08:54:21;5.97;;;1.38;;
45688;SDS011;31400;48.132;20.872;2023-03-16T08:59:13;4.85;;;1.02;;
45688;SDS011;31400;48.132;20.872;2023-03-16T09:01:39;4.35;;;1.00;;
45688;SDS011;31400;48.132;20.872;2023-03-16T09:04:06;9.43;;;1.40;;
45688;SDS011;31400;48.132;20.872;2023-03-16T09:06:32;4.43;;;1.40;;
45688;SDS011;31400;48.132;20.872;2023-03-16T09:09:08;2.05;;;1.20;;
45688;SDS011;31400;48.132;20.872;2023-03-16T09:11:38;4.88;;;1.20;;
45688;SDS011;31400;48.132;20.872;2023-03-16T09:14:24;5.13;;;1.70;;
45688;SDS011;31400;48.132;20.872;2023-03-16T09:17:10;5.85;;;1.50;;
45688;SDS011;31400;48.132;20.872;2023-03-16T09:19:41;2.95;;;1.27;;
45688;SDS011;31400;48.132;20.872;2023-03-16T09:22:10;8.98;;;1.33;;
45688;SDS011;31400;48.132;20.872;2023-03-16T09:24:40;5.13;;;1.52;;
45688;SDS011;31400;48.132;20.872;2023-03-16T09:27:14;3.50;;;1.08;;
45688;SDS011;31400;48.132;20.872;2023-03-16T09:29:41;1.25;;;0.90;;
45688;SDS011;31400;48.132;20.872;2023-03-16T09:32:13;2.30;;;1.13;;
45688;SDS011;31400;48.132;20.872;2023-03-16T09:34:42;5.22;;;1.55;;
45688;SDS011;31400;48.132;20.872;2023-03-16T09:37:10;3.30;;;1.30;;
45688;SDS011;31400;48.132;20.872;2023-03-16T09:39:40;5.35;;;1.67;;
45688;SDS011;31400;48.132;20.872;2023-03-16T09:42:11;2.28;;;1.13;;
45688;SDS011;31400;48.132;20.872;2023-03-16T09:44:49;2.92;;;1.48;;
45688;SDS011;31400;48.132;20.872;2023-03-16T09:47:22;2.78;;;1.10;;
45688;SDS011;31400;48.132;20.872;2023-03-16T09:49:52;5.65;;;2.47;;
45688;SDS011;31400;48.132;20.872;2023-03-16T09:55:10;2.03;;;1.20;;
45688;SDS011;31400;48.132;20.872;2023-03-16T09:57:38;4.18;;;1.58;;
45688;SDS011;31400;48.132;20.872;2023-03-16T10:00:16;3.53;;;1.48;;
45688;SDS011;31400;48.132;20.872;2023-03-16T10:05:13;2.03;;;0.85;;
45688;SDS011;31400;48.132;20.872;2023-03-16T10:12:58;1.63;;;0.80;;
45688;SDS011;31400;48.132;20.872;2023-03-16T10:15:26;2.33;;;0.80;;
45688;SDS011;31400;48.132;20.872;2023-03-16T10:20:27;1.70;;;0.93;;
45688;SDS011;31400;48.132;20.872;2023-03-16T10:22:57;1.75;;;0.80;;
45688;SDS011;31400;48.132;20.872;2023-03-16T10:27:55;3.58;;;1.02;;
45688;SDS011;31400;48.132;20.872;2023-03-16T10:30:31;1.55;;;0.90;;
45688;SDS011;31400;48.132;20.872;2023-03-16T10:33:02;5.45;;;1.25;;
45688;SDS011;31400;48.132;20.872;2023-03-16T10:35:49;2.58;;;0.82;;
45688;SDS011;31400;48.132;20.872;2023-03-16T10:40:52;3.80;;;2.10;;
45688;SDS011;31400;48.132;20.872;2023-03-16T10:43:18;4.38;;;1.38;;
45688;SDS011;31400;48.132;20.872;2023-03-16T10:45:44;1.27;;;0.90;;
45688;SDS011;31400;48.132;20.872;2023-03-16T10:48:12;3.67;;;1.15;;
45688;SDS011;31400;48.132;20.872;2023-03-16T10:50:38;3.17;;;1.33;;
45688;SDS011;31400;48.132;20.872;2023-03-16T10:53:47;5.57;;;1.23;;
45688;SDS011;31400;48.132;20.872;2023-03-16T10:55:58;5.95;;;1.50;;
45688;SDS011;31400;48.132;20.872;2023-03-16T10:58:25;5.60;;;1.15;;
45688;SDS011;31400;48.132;20.872;2023-03-16T11:00:51;5.13;;;1.23;;
45688;SDS011;31400;48.132;20.872;2023-03-16T11:03:29;3.22;;;1.33;;
45688;SDS011;31400;48.132;20.872;2023-03-16T11:06:03;2.72;;;0.95;;
45688;SDS011;31400;48.132;20.872;2023-03-16T11:08:33;2.35;;;1.27;;
45688;SDS011;31400;48.132;20.872;2023-03-16T11:11:45;2.33;;;1.33;;
45688;SDS011;31400;48.132;20.872;2023-03-16T11:13:53;4.05;;;1.33;;
45688;SDS011;31400;48.132;20.872;2023-03-16T11:16:24;1.95;;;0.73;;
45688;SDS011;31400;48.132;20.872;2023-03-16T11:19:01;1.08;;;0.50;;
45688;SDS011;31400;48.132;20.872;2023-03-16T11:24:09;4.90;;;0.93;;
45688;SDS011;31400;48.132;20.872;2023-03-16T11:26:39;2.10;;;1.20;;
45688;SDS011;31400;48.132;20.872;2023-03-16T11:29:26;3.05;;;1.10;;
45688;SDS011;31400;48.132;20.872;2023-03-16T11:31:55;4.88;;;0.93;;
45688;SDS011;31400;48.132;20.872;2023-03-16T11:34:29;2.67;;;0.90;;
45688;SDS011;31400;48.132;20.872;2023-03-16T11:37:03;2.75;;;0.85;;
45688;SDS011;31400;48.132;20.872;2023-03-16T11:42:12;2.67;;;1.25;;
45688;SDS011;31400;48.132;20.872;2023-03-16T11:45:05;3.08;;;1.05;;
45688;SDS011;31400;48.132;20.872;2023-03-16T12:00:39;2.55;;;1.02;;
45688;SDS011;31400;48.132;20.872;2023-03-16T12:06:07;1.67;;;0.63;;
45688;SDS011;31400;48.132;20.872;2023-03-16T12:11:06;3.30;;;0.90;;
45688;SDS011;31400;48.132;20.872;2023-03-16T12:16:25;3.35;;;0.80;;
45688;SDS011;31400;48.132;20.872;2023-03-16T12:18:57;3.97;;;0.93;;
45688;SDS011;31400;48.132;20.872;2023-03-16T12:26:18;1.95;;;0.98;;
45688;SDS011;31400;48.132;20.872;2023-03-16T12:28:46;2.65;;;1.00;;
45688;SDS011;31400;48.132;20.872;2023-03-16T12:31:15;1.38;;;0.77;;
45688;SDS011;31400;48.132;20.872;2023-03-16T12:41:34;2.50;;;1.48;;
45688;SDS011;31400;48.132;20.872;2023-03-16T12:44:19;1.58;;;0.68;;
45688;SDS011;31400;48.132;20.872;2023-03-16T12:46:55;2.95;;;1.50;;
45688;SDS011;31400;48.132;20.872;2023-03-16T12:49:25;2.90;;;1.27;;
45688;SDS011;31400;48.132;20.872;2023-03-16T12:52:00;2.90;;;1.15;;
45688;SDS011;31400;48.132;20.872;2023-03-16T12:54:26;5.55;;;0.90;;
45688;SDS011;31400;48.132;20.872;2023-03-16T12:56:59;2.42;;;1.25;;
45688;SDS011;31400;48.132;20.872;2023-03-16T12:59:33;6.25;;;1.55;;
45688;SDS011;31400;48.132;20.872;2023-03-16T13:02:00;2.75;;;0.77;;
45688;SDS011;31400;48.132;20.872;2023-03-16T13:04:38;2.42;;;1.13;;
45688;SDS011;31400;48.132;20.872;2023-03-16T13:07:17;0.80;;;0.45;;
45688;SDS011;31400;48.132;20.872;2023-03-16T13:09:50;1.25;;;0.68;;
45688;SDS011;31400;48.132;20.872;2023-03-16T13:12:21;1.27;;;0.75;;
45688;SDS011;31400;48.132;20.872;2023-03-16T13:14:48;0.55;;;0.38;;
45688;SDS011;31400;48.132;20.872;2023-03-16T13:22:24;4.15;;;1.10;;
45688;SDS011;31400;48.132;20.872;2023-03-16T13:24:54;1.92;;;0.90;;
45688;SDS011;31400;48.132;20.872;2023-03-16T13:27:24;2.13;;;0.70;;
45688;SDS011;31400;48.132;20.872;2023-03-16T13:29:51;0.75;;;0.47;;
45688;SDS011;31400;48.132;20.872;2023-03-16T13:32:19;2.25;;;1.00;;
45688;SDS011;31400;48.132;20.872;2023-03-16T13:34:49;4.28;;;1.08;;
45688;SDS011;31400;48.132;20.872;2023-03-16T13:37:16;2.00;;;1.02;;
45688;SDS011;31400;48.132;20.872;2023-03-16T13:39:50;4.25;;;0.90;;
45688;SDS011;31400;48.132;20.872;2023-03-16T13:42:18;1.10;;;0.60;;
45688;SDS011;31400;48.132;20.872;2023-03-16T13:44:45;1.90;;;0.75;;
45688;SDS011;31400;48.132;20.872;2023-03-16T13:47:15;1.90;;;0.80;;
45688;SDS011;31400;48.132;20.872;2023-03-16T13:49:44;2.47;;;1.08;;
45688;SDS011;31400;48.132;20.872;2023-03-16T13:55:20;1.50;;;0.85;;
45688;SDS011;31400;48.132;20.872;2023-03-16T13:57:48;1.30;;;0.82;;
45688;SDS011;31400;48.132;20.872;2023-03-16T14:00:18;3.33;;;0.70;;
45688;SDS011;31400;48.132;20.872;2023-03-16T14:02:46;2.78;;;0.70;;
45688;SDS011;31400;48.132;20.872;2023-03-16T14:05:19;3.53;;;1.40;;
45688;SDS011;31400;48.132;20.872;2023-03-16T14:07:46;4.68;;;0.80;;
45688;SDS011;31400;48.132;20.872;2023-03-16T14:10:12;3.25;;;1.10;;
45688;SDS011;31400;48.132;20.872;2023-03-16T14:12:53;1.95;;;0.93;;
45688;SDS011;31400;48.132;20.872;2023-03-16T14:15:20;1.00;;;0.50;;
45688;SDS011;31400;48.132;20.872;2023-03-16T14:17:48;2.10;;;0.80;;
45688;SDS011;31400;48.132;20.872;2023-03-16T14:20:19;4.45;;;1.20;;
45688;SDS011;31400;48.132;20.872;2023-03-16T14:22:46;1.20;;;0.70;;
45688;SDS011;31400;48.132;20.872;2023-03-16T14:25:18;1.83;;;0.70;;
45688;SDS011;31400;48.132;20.872;2023-03-16T14:27:46;4.40;;;0.80;;
45688;SDS011;31400;48.132;20.872;2023-03-16T14:32:39;2.78;;;0.90;;
45688;SDS011;31400;48.132;20.872;2023-03-16T14:35:13;2.00;;;1.08;;
45688;SDS011;31400;48.132;20.872;2023-03-16T14:37:39;2.47;;;0.90;;
45688;SDS011;31400;48.132;20.872;2023-03-16T14:42:32;2.05;;;0.75;;
45688;SDS011;31400;48.132;20.872;2023-03-16T14:47:26;1.48;;;0.60;;
45688;SDS011;31400;48.132;20.872;2023-03-16T14:49:52;3.25;;;1.20;;
45688;SDS011;31400;48.132;20.872;2023-03-16T14:52:29;1.45;;;0.60;;
45688;SDS011;31400;48.132;20.872;2023-03-16T14:54:57;13.05;;;1.10;;
45688;SDS011;31400;48.132;20.872;2023-03-16T14:57:23;2.45;;;0.95;;
45688;SDS011;31400;48.132;20.872;2023-03-16T14:59:50;1.70;;;0.47;;
45688;SDS011;31400;48.132;20.872;2023-03-16T15:02:26;5.47;;;0.65;;
45688;SDS011;31400;48.132;20.872;2023-03-16T15:04:53;3.25;;;0.88;;
45688;SDS011;31400;48.132;20.872;2023-03-16T15:09:48;2.38;;;1.02;;
45688;SDS011;31400;48.132;20.872;2023-03-16T15:12:15;3.17;;;0.90;;
45688;SDS011;31400;48.132;20.872;2023-03-16T15:14:42;3.08;;;1.10;;
45688;SDS011;31400;48.132;20.872;2023-03-16T15:17:27;2.92;;;0.50;;
45688;SDS011;31400;48.132;20.872;2023-03-16T15:19:53;2.85;;;1.02;;
45688;SDS011;31400;48.132;20.872;2023-03-16T15:22:32;2.53;;;0.95;;
45688;SDS011;31400;48.132;20.872;2023-03-16T15:25:04;1.35;;;0.70;;
45688;SDS011;31400;48.132;20.872;2023-03-16T15:27:35;3.08;;;1.10;;
45688;SDS011;31400;48.132;20.872;2023-03-16T15:30:02;2.03;;;0.60;;
45688;SDS011;31400;48.132;20.872;2023-03-16T15:32:28;4.13;;;0.98;;
45688;SDS011;31400;48.132;20.872;2023-03-16T15:34:54;3.95;;;0.93;;
45688;SDS011;31400;48.132;20.872;2023-03-16T15:37:21;1.00;;;0.60;;
45688;SDS011;31400;48.132;20.872;2023-03-16T15:39:51;7.00;;;1.38;;
45688;SDS011;31400;48.132;20.872;2023-03-16T15:42:17;1.42;;;0.57;;
45688;SDS011;31400;48.132;20.872;2023-03-16T15:44:44;6.97;;;0.73;;
45688;SDS011;31400;48.132;20.872;2023-03-16T15:47:11;2.17;;;0.55;;
45688;SDS011;31400;48.132;20.872;2023-03-16T15:52:03;1.33;;;0.82;;
45688;SDS011;31400;48.132;20.872;2023-03-16T15:54:31;1.42;;;0.63;;
45688;SDS011;31400;48.132;20.872;2023-03-16T15:59:23;6.93;;;1.55;;
45688;SDS011;31400;48.132;20.872;2023-03-16T16:01:51;1.95;;;1.05;;
45688;SDS011;31400;48.132;20.872;2023-03-16T16:04:18;2.35;;;0.85;;
45688;SDS011;31400;48.132;20.872;2023-03-16T16:06:45;6.75;;;1.00;;
45688;SDS011;31400;48.132;20.872;2023-03-16T16:11:37;3.30;;;1.75;;
45688;SDS011;31400;48.132;20.872;2023-03-16T16:14:05;3.58;;;1.70;;
45688;SDS011;31400;48.132;20.872;2023-03-16T16:16:33;4.45;;;1.65;;
45688;SDS011;31400;48.132;20.872;2023-03-16T16:19:01;4.97;;;0.98;;
45688;SDS011;31400;48.132;20.872;2023-03-16T16:21:27;1.88;;;0.68;;
45688;SDS011;31400;48.132;20.872;2023-03-16T16:23:56;2.85;;;0.70;;
45688;SDS011;31400;48.132;20.872;2023-03-16T16:26:26;2.38;;;0.95;;
45688;SDS011;31400;48.132;20.872;2023-03-16T16:28:53;5.00;;;1.15;;
45688;SDS011;31400;48.132;20.872;2023-03-16T16:31:22;4.55;;;1.45;;
45688;SDS011;31400;48.132;20.872;2023-03-16T16:36:15;6.93;;;1.58;;
45688;SDS011;31400;48.132;20.872;2023-03-16T16:38:44;1.73;;;0.90;;
45688;SDS011;31400;48.132;20.872;2023-03-16T16:43:40;3.85;;;1.40;;